Terminal Aerodrome Forecast
Issued by NWS Des Moines, IA

Home | Current Version | Previous Version | Text Only | Print | Product List | Glossary On
Versions: 1 2 3 4 5 6 7 8 9 10 11 12 13 14 15 16
000
FTUS43 KDMX 240654 AAA
TAFDSM
TAF AMD
KDSM 240654Z 2407/2506 32008KT P6SM VCSH SCT008 OVC012
      TEMPO 2407/2411 3SM -SHRA BKN008
     FM241600 36012KT P6SM OVC020
     FM242300 01009KT P6SM SCT025 BKN040
     FM250200 03003KT P6SM FEW030=

USA.gov is the U.S. government's official web portal to all federal, state and local government web resources and services.